sensor_id;sensor_type;location;lat;lon;timestamp;temperature;humidity
10263;DHT22;5177;50.068;8.156;2022-08-30T00:01:29;18.90;99.90
10263;DHT22;5177;50.068;8.156;2022-08-30T00:03:55;18.70;99.90
10263;DHT22;5177;50.068;8.156;2022-08-30T00:06:21;18.70;1.00
10263;DHT22;5177;50.068;8.156;2022-08-30T00:08:47;18.70;1.00
10263;DHT22;5177;50.068;8.156;2022-08-30T00:11:16;18.70;1.00
10263;DHT22;5177;50.068;8.156;2022-08-30T00:13:43;18.60;1.00
10263;DHT22;5177;50.068;8.156;2022-08-30T00:16:09;18.60;1.00
10263;DHT22;5177;50.068;8.156;2022-08-30T00:18:36;18.70;1.00
10263;DHT22;5177;50.068;8.156;2022-08-30T00:21:02;18.60;33.90
10263;DHT22;5177;50.068;8.156;2022-08-30T00:23:28;18.60;99.90
10263;DHT22;5177;50.068;8.156;2022-08-30T00:25:53;18.60;99.90
10263;DHT22;5177;50.068;8.156;2022-08-30T00:28:19;18.60;41.40
10263;DHT22;5177;50.068;8.156;2022-08-30T00:30:45;18.60;99.90
10263;DHT22;5177;50.068;8.156;2022-08-30T00:33:10;18.50;99.90
10263;DHT22;5177;50.068;8.156;2022-08-30T00:35:36;18.50;99.90
10263;DHT22;5177;50.068;8.156;2022-08-30T00:38:04;18.50;99.90
10263;DHT22;5177;50.068;8.156;2022-08-30T00:40:30;18.50;99.90
10263;DHT22;5177;50.068;8.156;2022-08-30T00:42:56;18.50;99.90
10263;DHT22;5177;50.068;8.156;2022-08-30T00:45:24;18.40;99.90
10263;DHT22;5177;50.068;8.156;2022-08-30T00:47:50;18.40;99.90
10263;DHT22;5177;50.068;8.156;2022-08-30T00:50:16;18.40;1.00
10263;DHT22;5177;50.068;8.156;2022-08-30T00:52:43;18.30;1.00
10263;DHT22;5177;50.068;8.156;2022-08-30T00:55:10;18.40;99.90
10263;DHT22;5177;50.068;8.156;2022-08-30T00:57:39;18.30;99.90
10263;DHT22;5177;50.068;8.156;2022-08-30T01:00:05;18.30;1.00
10263;DHT22;5177;50.068;8.156;2022-08-30T01:02:31;18.30;99.90
10263;DHT22;5177;50.068;8.156;2022-08-30T01:04:57;18.30;1.00
10263;DHT22;5177;50.068;8.156;2022-08-30T01:07:23;18.30;99.90
10263;DHT22;5177;50.068;8.156;2022-08-30T01:09:49;18.30;99.90
10263;DHT22;5177;50.068;8.156;2022-08-30T01:12:15;18.30;99.90
10263;DHT22;5177;50.068;8.156;2022-08-30T01:14:40;18.20;99.90
10263;DHT22;5177;50.068;8.156;2022-08-30T01:17:06;18.20;99.90
10263;DHT22;5177;50.068;8.156;2022-08-30T01:22:06;18.20;99.90
10263;DHT22;5177;50.068;8.156;2022-08-30T01:24:32;18.10;1.00
10263;DHT22;5177;50.068;8.156;2022-08-30T01:26:59;18.10;1.00
10263;DHT22;5177;50.068;8.156;2022-08-30T01:29:25;18.10;1.00
10263;DHT22;5177;50.068;8.156;2022-08-30T01:31:51;18.10;99.90
10263;DHT22;5177;50.068;8.156;2022-08-30T01:34:16;18.00;1.00
10263;DHT22;5177;50.068;8.156;2022-08-30T01:36:43;18.00;1.00
10263;DHT22;5177;50.068;8.156;2022-08-30T01:39:10;18.00;1.00
10263;DHT22;5177;50.068;8.156;2022-08-30T01:41:36;17.90;1.00
10263;DHT22;5177;50.068;8.156;2022-08-30T01:44:03;17.90;99.90
10263;DHT22;5177;50.068;8.156;2022-08-30T01:46:31;17.90;15.90
10263;DHT22;5177;50.068;8.156;2022-08-30T01:49:00;17.80;1.00
10263;DHT22;5177;50.068;8.156;2022-08-30T01:51:26;17.80;99.90
10263;DHT22;5177;50.068;8.156;2022-08-30T01:53:52;17.80;99.90
10263;DHT22;5177;50.068;8.156;2022-08-30T01:56:18;17.80;1.00
10263;DHT22;5177;50.068;8.156;2022-08-30T01:58:44;17.80;99.90
10263;DHT22;5177;50.068;8.156;2022-08-30T02:01:10;17.70;1.00
10263;DHT22;5177;50.068;8.156;2022-08-30T02:03:41;17.70;1.00
10263;DHT22;5177;50.068;8.156;2022-08-30T02:06:08;17.70;1.00
10263;DHT22;5177;50.068;8.156;2022-08-30T02:08:35;17.60;1.00
10263;DHT22;5177;50.068;8.156;2022-08-30T02:11:01;17.60;1.00
10263;DHT22;5177;50.068;8.156;2022-08-30T02:13:26;17.60;1.00
10263;DHT22;5177;50.068;8.156;2022-08-30T02:15:52;17.50;99.90
10263;DHT22;5177;50.068;8.156;2022-08-30T02:18:21;17.50;99.90
10263;DHT22;5177;50.068;8.156;2022-08-30T02:20:47;17.50;72.90
10263;DHT22;5177;50.068;8.156;2022-08-30T02:23:12;17.40;1.00
10263;DHT22;5177;50.068;8.156;2022-08-30T02:25:38;17.40;99.90
10263;DHT22;5177;50.068;8.156;2022-08-30T02:28:05;17.40;21.90
10263;DHT22;5177;50.068;8.156;2022-08-30T02:30:30;17.40;1.00
10263;DHT22;5177;50.068;8.156;2022-08-30T02:32:56;17.40;1.00
10263;DHT22;5177;50.068;8.156;2022-08-30T02:35:21;17.40;60.60
10263;DHT22;5177;50.068;8.156;2022-08-30T02:37:47;17.40;1.00
10263;DHT22;5177;50.068;8.156;2022-08-30T02:40:12;17.40;1.00
10263;DHT22;5177;50.068;8.156;2022-08-30T02:42:38;17.40;99.90
10263;DHT22;5177;50.068;8.156;2022-08-30T02:45:04;17.30;1.00
10263;DHT22;5177;50.068;8.156;2022-08-30T02:47:29;17.30;1.00
10263;DHT22;5177;50.068;8.156;2022-08-30T02:49:55;17.30;1.00
10263;DHT22;5177;50.068;8.156;2022-08-30T02:52:21;17.20;1.00
10263;DHT22;5177;50.068;8.156;2022-08-30T02:54:47;17.20;99.90
10263;DHT22;5177;50.068;8.156;2022-08-30T02:57:12;17.10;1.00
10263;DHT22;5177;50.068;8.156;2022-08-30T02:59:38;17.10;99.90
10263;DHT22;5177;50.068;8.156;2022-08-30T03:02:09;17.10;99.90
10263;DHT22;5177;50.068;8.156;2022-08-30T03:04:34;17.10;99.90
10263;DHT22;5177;50.068;8.156;2022-08-30T03:07:00;17.10;99.90
10263;DHT22;5177;50.068;8.156;2022-08-30T03:09:25;17.10;97.40
10263;DHT22;5177;50.068;8.156;2022-08-30T03:11:51;17.10;1.00
10263;DHT22;5177;50.068;8.156;2022-08-30T03:14:16;17.00;1.00
10263;DHT22;5177;50.068;8.156;2022-08-30T03:16:42;17.00;99.90
10263;DHT22;5177;50.068;8.156;2022-08-30T03:19:10;17.00;99.90
10263;DHT22;5177;50.068;8.156;2022-08-30T03:21:36;17.00;1.00
10263;DHT22;5177;50.068;8.156;2022-08-30T03:24:02;17.00;99.90
10263;DHT22;5177;50.068;8.156;2022-08-30T03:26:27;17.00;99.90
10263;DHT22;5177;50.068;8.156;2022-08-30T03:28:53;16.90;99.90
10263;DHT22;5177;50.068;8.156;2022-08-30T03:31:18;16.90;99.90
10263;DHT22;5177;50.068;8.156;2022-08-30T03:33:44;16.90;99.90
10263;DHT22;5177;50.068;8.156;2022-08-30T03:36:10;16.90;99.90
10263;DHT22;5177;50.068;8.156;2022-08-30T03:38:36;16.90;99.90
10263;DHT22;5177;50.068;8.156;2022-08-30T03:41:02;16.90;99.90
10263;DHT22;5177;50.068;8.156;2022-08-30T03:43:28;16.80;99.90
10263;DHT22;5177;50.068;8.156;2022-08-30T03:45:54;16.80;1.00
10263;DHT22;5177;50.068;8.156;2022-08-30T03:48:19;16.80;1.00
10263;DHT22;5177;50.068;8.156;2022-08-30T03:50:45;16.80;1.00
10263;DHT22;5177;50.068;8.156;2022-08-30T03:53:11;16.80;1.00
10263;DHT22;5177;50.068;8.156;2022-08-30T03:55:36;16.90;1.00
10263;DHT22;5177;50.068;8.156;2022-08-30T03:58:02;16.80;1.00
10263;DHT22;5177;50.068;8.156;2022-08-30T04:00:27;16.90;99.90
10263;DHT22;5177;50.068;8.156;2022-08-30T04:02:53;16.80;1.00
10263;DHT22;5177;50.068;8.156;2022-08-30T04:05:18;16.90;99.90
10263;DHT22;5177;50.068;8.156;2022-08-30T04:07:44;16.80;1.00
10263;DHT22;5177;50.068;8.156;2022-08-30T04:10:10;16.80;99.90
10263;DHT22;5177;50.068;8.156;2022-08-30T04:12:36;16.80;99.90
10263;DHT22;5177;50.068;8.156;2022-08-30T04:15:01;16.80;1.00
10263;DHT22;5177;50.068;8.156;2022-08-30T04:17:27;16.80;1.00
10263;DHT22;5177;50.068;8.156;2022-08-30T04:19:52;16.80;99.90
10263;DHT22;5177;50.068;8.156;2022-08-30T04:22:18;16.80;1.00
10263;DHT22;5177;50.068;8.156;2022-08-30T04:24:43;16.80;1.00
10263;DHT22;5177;50.068;8.156;2022-08-30T04:27:09;16.80;1.00
10263;DHT22;5177;50.068;8.156;2022-08-30T04:29:34;16.80;68.60
10263;DHT22;5177;50.068;8.156;2022-08-30T04:32:00;16.80;99.90
10263;DHT22;5177;50.068;8.156;2022-08-30T04:34:26;16.70;1.00
10263;DHT22;5177;50.068;8.156;2022-08-30T04:36:52;16.70;21.60
10263;DHT22;5177;50.068;8.156;2022-08-30T04:39:17;16.70;1.00
10263;DHT22;5177;50.068;8.156;2022-08-30T04:41:45;16.70;1.00
10263;DHT22;5177;50.068;8.156;2022-08-30T04:44:11;16.70;1.00
10263;DHT22;5177;50.068;8.156;2022-08-30T04:46:37;16.70;1.00
10263;DHT22;5177;50.068;8.156;2022-08-30T04:49:02;16.70;1.00
10263;DHT22;5177;50.068;8.156;2022-08-30T04:51:28;16.70;1.00
10263;DHT22;5177;50.068;8.156;2022-08-30T04:53:53;16.70;1.00
10263;DHT22;5177;50.068;8.156;2022-08-30T04:56:20;16.70;99.90
10263;DHT22;5177;50.068;8.156;2022-08-30T04:58:47;16.70;1.00
10263;DHT22;5177;50.068;8.156;2022-08-30T05:01:14;16.60;1.00
10263;DHT22;5177;50.068;8.156;2022-08-30T05:03:39;16.60;99.90
10263;DHT22;5177;50.068;8.156;2022-08-30T05:06:05;16.60;99.90
10263;DHT22;5177;50.068;8.156;2022-08-30T05:08:31;16.50;99.90
10263;DHT22;5177;50.068;8.156;2022-08-30T05:10:56;16.60;99.90
10263;DHT22;5177;50.068;8.156;2022-08-30T05:13:21;16.60;99.90
10263;DHT22;5177;50.068;8.156;2022-08-30T05:15:47;16.60;99.90
10263;DHT22;5177;50.068;8.156;2022-08-30T05:18:13;16.60;1.00
10263;DHT22;5177;50.068;8.156;2022-08-30T05:20:40;16.60;99.90
10263;DHT22;5177;50.068;8.156;2022-08-30T05:23:06;16.60;99.90
10263;DHT22;5177;50.068;8.156;2022-08-30T05:25:33;16.70;99.90
10263;DHT22;5177;50.068;8.156;2022-08-30T05:27:58;16.70;1.00
10263;DHT22;5177;50.068;8.156;2022-08-30T05:30:24;16.80;1.00
10263;DHT22;5177;50.068;8.156;2022-08-30T05:32:50;16.80;1.00
10263;DHT22;5177;50.068;8.156;2022-08-30T05:35:16;16.80;1.00
10263;DHT22;5177;50.068;8.156;2022-08-30T05:37:42;16.90;1.00
10263;DHT22;5177;50.068;8.156;2022-08-30T05:40:07;16.90;1.00
10263;DHT22;5177;50.068;8.156;2022-08-30T05:42:34;17.00;1.00
10263;DHT22;5177;50.068;8.156;2022-08-30T05:45:00;17.10;1.00
10263;DHT22;5177;50.068;8.156;2022-08-30T05:47:26;17.10;1.00
10263;DHT22;5177;50.068;8.156;2022-08-30T05:49:52;17.20;1.00
10263;DHT22;5177;50.068;8.156;2022-08-30T05:52:17;17.20;1.00
10263;DHT22;5177;50.068;8.156;2022-08-30T05:54:50;17.30;1.00
10263;DHT22;5177;50.068;8.156;2022-08-30T05:57:16;17.40;99.90
10263;DHT22;5177;50.068;8.156;2022-08-30T05:59:42;17.50;1.00
10263;DHT22;5177;50.068;8.156;2022-08-30T06:02:07;17.50;99.90
10263;DHT22;5177;50.068;8.156;2022-08-30T06:04:33;17.60;1.00
10263;DHT22;5177;50.068;8.156;2022-08-30T06:07:01;17.70;1.00
10263;DHT22;5177;50.068;8.156;2022-08-30T06:09:26;17.80;1.00
10263;DHT22;5177;50.068;8.156;2022-08-30T06:11:51;18.00;1.00
10263;DHT22;5177;50.068;8.156;2022-08-30T06:14:17;18.10;1.00
10263;DHT22;5177;50.068;8.156;2022-08-30T06:16:43;18.20;99.90
10263;DHT22;5177;50.068;8.156;2022-08-30T06:19:10;18.30;99.90
10263;DHT22;5177;50.068;8.156;2022-08-30T06:21:36;18.40;99.90
10263;DHT22;5177;50.068;8.156;2022-08-30T06:24:03;18.50;1.00
10263;DHT22;5177;50.068;8.156;2022-08-30T06:26:30;18.70;1.00
10263;DHT22;5177;50.068;8.156;2022-08-30T06:28:56;18.80;1.00
10263;DHT22;5177;50.068;8.156;2022-08-30T06:31:22;18.90;1.00
10263;DHT22;5177;50.068;8.156;2022-08-30T06:33:48;19.00;1.00
10263;DHT22;5177;50.068;8.156;2022-08-30T06:36:15;19.20;99.90
10263;DHT22;5177;50.068;8.156;2022-08-30T06:38:41;19.40;1.00
10263;DHT22;5177;50.068;8.156;2022-08-30T06:41:12;19.50;1.00
10263;DHT22;5177;50.068;8.156;2022-08-30T06:43:38;19.60;90.80
10263;DHT22;5177;50.068;8.156;2022-08-30T06:46:04;19.70;99.90
10263;DHT22;5177;50.068;8.156;2022-08-30T06:48:29;19.90;1.00
10263;DHT22;5177;50.068;8.156;2022-08-30T06:50:55;20.00;1.00
10263;DHT22;5177;50.068;8.156;2022-08-30T06:53:24;20.20;99.90
10263;DHT22;5177;50.068;8.156;2022-08-30T06:56:09;20.30;99.90
10263;DHT22;5177;50.068;8.156;2022-08-30T06:58:36;20.40;99.90
10263;DHT22;5177;50.068;8.156;2022-08-30T07:01:03;20.50;13.10
10263;DHT22;5177;50.068;8.156;2022-08-30T07:03:28;20.70;1.00
10263;DHT22;5177;50.068;8.156;2022-08-30T07:05:54;20.80;1.00
10263;DHT22;5177;50.068;8.156;2022-08-30T07:08:20;20.90;1.00
10263;DHT22;5177;50.068;8.156;2022-08-30T07:10:47;21.00;99.90
10263;DHT22;5177;50.068;8.156;2022-08-30T07:13:13;21.20;99.90
10263;DHT22;5177;50.068;8.156;2022-08-30T07:15:40;21.40;99.90
10263;DHT22;5177;50.068;8.156;2022-08-30T07:18:05;21.60;99.90
10263;DHT22;5177;50.068;8.156;2022-08-30T07:20:49;21.70;99.90
10263;DHT22;5177;50.068;8.156;2022-08-30T07:23:15;21.90;48.70
10263;DHT22;5177;50.068;8.156;2022-08-30T07:25:40;22.00;38.40
10263;DHT22;5177;50.068;8.156;2022-08-30T07:28:06;22.10;8.80
10263;DHT22;5177;50.068;8.156;2022-08-30T07:30:32;22.30;1.00
10263;DHT22;5177;50.068;8.156;2022-08-30T07:32:58;22.40;1.00
10263;DHT22;5177;50.068;8.156;2022-08-30T07:35:24;22.40;1.00
10263;DHT22;5177;50.068;8.156;2022-08-30T07:37:49;22.50;1.00
10263;DHT22;5177;50.068;8.156;2022-08-30T07:40:14;22.60;1.00
10263;DHT22;5177;50.068;8.156;2022-08-30T07:42:40;22.60;1.00
10263;DHT22;5177;50.068;8.156;2022-08-30T07:45:06;22.70;1.00
10263;DHT22;5177;50.068;8.156;2022-08-30T07:47:32;23.00;1.00
10263;DHT22;5177;50.068;8.156;2022-08-30T07:49:59;23.00;1.00
10263;DHT22;5177;50.068;8.156;2022-08-30T07:52:25;23.20;1.00
10263;DHT22;5177;50.068;8.156;2022-08-30T07:54:51;23.40;99.90
10263;DHT22;5177;50.068;8.156;2022-08-30T07:57:17;23.50;99.90
10263;DHT22;5177;50.068;8.156;2022-08-30T07:59:43;23.50;99.90
10263;DHT22;5177;50.068;8.156;2022-08-30T08:02:08;23.60;99.90
10263;DHT22;5177;50.068;8.156;2022-08-30T08:04:34;23.70;99.90
10263;DHT22;5177;50.068;8.156;2022-08-30T08:07:00;23.90;99.90
10263;DHT22;5177;50.068;8.156;2022-08-30T08:09:25;24.00;99.90
10263;DHT22;5177;50.068;8.156;2022-08-30T08:11:51;24.10;99.90
10263;DHT22;5177;50.068;8.156;2022-08-30T08:14:17;24.20;99.90
10263;DHT22;5177;50.068;8.156;2022-08-30T08:16:42;24.20;99.90
10263;DHT22;5177;50.068;8.156;2022-08-30T08:19:09;24.30;99.90
10263;DHT22;5177;50.068;8.156;2022-08-30T08:21:35;24.40;99.90
10263;DHT22;5177;50.068;8.156;2022-08-30T08:24:00;24.40;99.90
10263;DHT22;5177;50.068;8.156;2022-08-30T08:26:26;24.60;99.90
10263;DHT22;5177;50.068;8.156;2022-08-30T08:28:51;24.70;99.90
10263;DHT22;5177;50.068;8.156;2022-08-30T08:31:19;24.80;99.90
10263;DHT22;5177;50.068;8.156;2022-08-30T08:33:46;24.80;99.90
10263;DHT22;5177;50.068;8.156;2022-08-30T08:36:11;25.00;99.90
10263;DHT22;5177;50.068;8.156;2022-08-30T08:38:37;25.10;99.90
10263;DHT22;5177;50.068;8.156;2022-08-30T08:43:28;25.20;99.90
10263;DHT22;5177;50.068;8.156;2022-08-30T08:46:05;25.20;99.90
10263;DHT22;5177;50.068;8.156;2022-08-30T08:51:03;25.60;99.90
10263;DHT22;5177;50.068;8.156;2022-08-30T08:53:49;25.60;99.90
10263;DHT22;5177;50.068;8.156;2022-08-30T08:56:17;25.70;99.90
10263;DHT22;5177;50.068;8.156;2022-08-30T08:58:51;25.60;99.90
10263;DHT22;5177;50.068;8.156;2022-08-30T09:01:18;25.90;99.90
10263;DHT22;5177;50.068;8.156;2022-08-30T09:03:44;25.90;99.90
10263;DHT22;5177;50.068;8.156;2022-08-30T09:06:17;25.90;99.90
10263;DHT22;5177;50.068;8.156;2022-08-30T09:08:44;26.00;99.90
10263;DHT22;5177;50.068;8.156;2022-08-30T09:11:09;26.00;96.50
10263;DHT22;5177;50.068;8.156;2022-08-30T09:13:41;26.20;90.90
10263;DHT22;5177;50.068;8.156;2022-08-30T09:16:06;26.30;1.00
10263;DHT22;5177;50.068;8.156;2022-08-30T09:18:42;26.30;1.00
10263;DHT22;5177;50.068;8.156;2022-08-30T09:21:09;26.40;1.00
10263;DHT22;5177;50.068;8.156;2022-08-30T09:23:35;26.50;1.00
10263;DHT22;5177;50.068;8.156;2022-08-30T09:26:08;26.60;1.00
10263;DHT22;5177;50.068;8.156;2022-08-30T09:28:43;26.90;1.00
10263;DHT22;5177;50.068;8.156;2022-08-30T09:46:25;28.70;1.00
10263;DHT22;5177;50.068;8.156;2022-08-30T09:48:50;28.60;1.00
10263;DHT22;5177;50.068;8.156;2022-08-30T09:51:38;28.60;1.00
10263;DHT22;5177;50.068;8.156;2022-08-30T09:56:38;28.60;1.00
10263;DHT22;5177;50.068;8.156;2022-08-30T09:59:24;28.60;1.00
10263;DHT22;5177;50.068;8.156;2022-08-30T10:02:38;28.50;1.00
10263;DHT22;5177;50.068;8.156;2022-08-30T10:10:02;28.60;1.00
10263;DHT22;5177;50.068;8.156;2022-08-30T10:15:31;28.80;1.00
10263;DHT22;5177;50.068;8.156;2022-08-30T10:18:05;29.00;1.00
10263;DHT22;5177;50.068;8.156;2022-08-30T10:20:39;29.20;1.00
10263;DHT22;5177;50.068;8.156;2022-08-30T10:23:27;29.30;1.00
10263;DHT22;5177;50.068;8.156;2022-08-30T10:26:17;29.30;1.00
10263;DHT22;5177;50.068;8.156;2022-08-30T10:28:50;29.30;1.00
10263;DHT22;5177;50.068;8.156;2022-08-30T10:31:26;29.40;1.00
10263;DHT22;5177;50.068;8.156;2022-08-30T10:33:55;29.60;1.00
10263;DHT22;5177;50.068;8.156;2022-08-30T10:36:25;29.70;1.00
10263;DHT22;5177;50.068;8.156;2022-08-30T10:38:51;29.70;1.00
10263;DHT22;5177;50.068;8.156;2022-08-30T10:49:09;30.10;1.00
10263;DHT22;5177;50.068;8.156;2022-08-30T10:51:43;30.30;99.90
10263;DHT22;5177;50.068;8.156;2022-08-30T10:54:21;30.30;99.90
10263;DHT22;5177;50.068;8.156;2022-08-30T10:56:48;30.30;99.90
10263;DHT22;5177;50.068;8.156;2022-08-30T10:59:16;30.40;99.90
10263;DHT22;5177;50.068;8.156;2022-08-30T11:09:22;30.50;99.90
10263;DHT22;5177;50.068;8.156;2022-08-30T11:14:20;30.80;99.90
10263;DHT22;5177;50.068;8.156;2022-08-30T11:16:47;31.00;99.90
10263;DHT22;5177;50.068;8.156;2022-08-30T11:19:22;31.00;99.90
10263;DHT22;5177;50.068;8.156;2022-08-30T11:21:49;31.20;99.90
10263;DHT22;5177;50.068;8.156;2022-08-30T11:29:26;31.30;99.90
10263;DHT22;5177;50.068;8.156;2022-08-30T11:31:53;31.30;99.90
10263;DHT22;5177;50.068;8.156;2022-08-30T11:37:03;31.60;99.90
10263;DHT22;5177;50.068;8.156;2022-08-30T11:42:11;31.90;99.90
10263;DHT22;5177;50.068;8.156;2022-08-30T11:44:36;31.90;99.90
10263;DHT22;5177;50.068;8.156;2022-08-30T11:47:35;32.00;99.90
10263;DHT22;5177;50.068;8.156;2022-08-30T11:50:00;32.00;99.90
10263;DHT22;5177;50.068;8.156;2022-08-30T11:52:40;31.90;99.90
10263;DHT22;5177;50.068;8.156;2022-08-30T11:55:17;32.10;99.90
10263;DHT22;5177;50.068;8.156;2022-08-30T11:57:49;32.20;99.90
10263;DHT22;5177;50.068;8.156;2022-08-30T12:02:56;32.30;99.90
10263;DHT22;5177;50.068;8.156;2022-08-30T12:08:07;32.40;99.90
10263;DHT22;5177;50.068;8.156;2022-08-30T12:10:44;32.50;99.90
10263;DHT22;5177;50.068;8.156;2022-08-30T12:13:49;32.70;99.90
10263;DHT22;5177;50.068;8.156;2022-08-30T12:15:56;32.80;99.90
10263;DHT22;5177;50.068;8.156;2022-08-30T12:18:24;32.80;99.90
10263;DHT22;5177;50.068;8.156;2022-08-30T12:20:55;32.80;99.90
10263;DHT22;5177;50.068;8.156;2022-08-30T12:23:30;32.90;99.90
10263;DHT22;5177;50.068;8.156;2022-08-30T12:26:11;32.60;99.90
10263;DHT22;5177;50.068;8.156;2022-08-30T12:28:36;32.80;99.90
10263;DHT22;5177;50.068;8.156;2022-08-30T12:31:06;32.80;99.90
10263;DHT22;5177;50.068;8.156;2022-08-30T12:33:37;33.00;99.90
10263;DHT22;5177;50.068;8.156;2022-08-30T12:36:04;33.00;99.90
10263;DHT22;5177;50.068;8.156;2022-08-30T12:38:29;33.00;99.90
10263;DHT22;5177;50.068;8.156;2022-08-30T12:40:56;32.90;99.90
10263;DHT22;5177;50.068;8.156;2022-08-30T12:43:27;33.00;99.90
10263;DHT22;5177;50.068;8.156;2022-08-30T12:45:54;33.30;99.90
10263;DHT22;5177;50.068;8.156;2022-08-30T12:48:24;33.20;99.90
10263;DHT22;5177;50.068;8.156;2022-08-30T12:50:51;33.20;99.90
10263;DHT22;5177;50.068;8.156;2022-08-30T12:53:25;33.00;99.90
10263;DHT22;5177;50.068;8.156;2022-08-30T12:58:31;33.10;99.90
10263;DHT22;5177;50.068;8.156;2022-08-30T13:01:10;33.50;99.90
10263;DHT22;5177;50.068;8.156;2022-08-30T13:03:36;33.80;99.90
10263;DHT22;5177;50.068;8.156;2022-08-30T13:06:02;33.80;99.90
10263;DHT22;5177;50.068;8.156;2022-08-30T13:08:33;33.80;99.90
10263;DHT22;5177;50.068;8.156;2022-08-30T13:11:02;34.10;99.90
10263;DHT22;5177;50.068;8.156;2022-08-30T13:13:39;34.20;99.90
10263;DHT22;5177;50.068;8.156;2022-08-30T13:16:27;34.50;99.90
10263;DHT22;5177;50.068;8.156;2022-08-30T13:18:55;34.30;99.90
10263;DHT22;5177;50.068;8.156;2022-08-30T13:21:48;34.20;99.90
10263;DHT22;5177;50.068;8.156;2022-08-30T13:24:15;34.30;99.90
10263;DHT22;5177;50.068;8.156;2022-08-30T13:26:40;34.30;99.90
10263;DHT22;5177;50.068;8.156;2022-08-30T13:29:06;34.30;99.90
10263;DHT22;5177;50.068;8.156;2022-08-30T13:31:38;34.60;99.90
10263;DHT22;5177;50.068;8.156;2022-08-30T13:34:03;34.60;99.90
10263;DHT22;5177;50.068;8.156;2022-08-30T13:36:33;34.80;99.90
10263;DHT22;5177;50.068;8.156;2022-08-30T13:38:59;35.00;99.90
10263;DHT22;5177;50.068;8.156;2022-08-30T13:41:26;35.30;99.90
10263;DHT22;5177;50.068;8.156;2022-08-30T13:43:51;35.30;99.90
10263;DHT22;5177;50.068;8.156;2022-08-30T13:46:17;35.40;99.90
10263;DHT22;5177;50.068;8.156;2022-08-30T13:48:44;35.30;99.90
10263;DHT22;5177;50.068;8.156;2022-08-30T13:51:09;35.40;99.90
10263;DHT22;5177;50.068;8.156;2022-08-30T13:53:35;35.20;99.90
10263;DHT22;5177;50.068;8.156;2022-08-30T13:56:01;35.00;99.90
10263;DHT22;5177;50.068;8.156;2022-08-30T13:58:27;34.60;99.90
10263;DHT22;5177;50.068;8.156;2022-08-30T14:00:52;34.50;99.90
10263;DHT22;5177;50.068;8.156;2022-08-30T14:03:18;34.10;99.90
10263;DHT22;5177;50.068;8.156;2022-08-30T14:05:43;33.90;99.90
10263;DHT22;5177;50.068;8.156;2022-08-30T14:08:10;33.60;99.90
10263;DHT22;5177;50.068;8.156;2022-08-30T14:10:36;33.60;99.90
10263;DHT22;5177;50.068;8.156;2022-08-30T14:13:02;33.80;99.90
10263;DHT22;5177;50.068;8.156;2022-08-30T14:15:28;34.20;99.90
10263;DHT22;5177;50.068;8.156;2022-08-30T14:17:53;34.30;99.90
10263;DHT22;5177;50.068;8.156;2022-08-30T14:20:19;34.20;99.90
10263;DHT22;5177;50.068;8.156;2022-08-30T14:22:44;34.50;99.90
10263;DHT22;5177;50.068;8.156;2022-08-30T14:25:10;35.40;99.90
10263;DHT22;5177;50.068;8.156;2022-08-30T14:27:35;36.90;99.90
10263;DHT22;5177;50.068;8.156;2022-08-30T14:30:01;37.90;99.90
10263;DHT22;5177;50.068;8.156;2022-08-30T14:32:28;38.70;99.90
10263;DHT22;5177;50.068;8.156;2022-08-30T14:34:53;39.40;99.90
10263;DHT22;5177;50.068;8.156;2022-08-30T14:37:19;39.80;99.90
10263;DHT22;5177;50.068;8.156;2022-08-30T14:39:45;39.90;99.90
10263;DHT22;5177;50.068;8.156;2022-08-30T14:42:10;39.80;99.90
10263;DHT22;5177;50.068;8.156;2022-08-30T14:44:36;39.80;99.90
10263;DHT22;5177;50.068;8.156;2022-08-30T14:47:02;39.40;99.90
10263;DHT22;5177;50.068;8.156;2022-08-30T14:49:28;39.40;99.90
10263;DHT22;5177;50.068;8.156;2022-08-30T14:51:54;39.50;99.90
10263;DHT22;5177;50.068;8.156;2022-08-30T14:54:23;39.40;99.90
10263;DHT22;5177;50.068;8.156;2022-08-30T14:56:49;39.50;99.90
10263;DHT22;5177;50.068;8.156;2022-08-30T14:59:15;38.70;99.90
10263;DHT22;5177;50.068;8.156;2022-08-30T15:01:42;38.40;99.90
10263;DHT22;5177;50.068;8.156;2022-08-30T15:04:08;38.40;99.90
10263;DHT22;5177;50.068;8.156;2022-08-30T15:06:35;38.80;99.90
10263;DHT22;5177;50.068;8.156;2022-08-30T15:09:00;39.10;99.90
10263;DHT22;5177;50.068;8.156;2022-08-30T15:11:26;39.60;99.90
10263;DHT22;5177;50.068;8.156;2022-08-30T15:13:52;39.40;99.90
10263;DHT22;5177;50.068;8.156;2022-08-30T15:16:28;39.60;99.90
10263;DHT22;5177;50.068;8.156;2022-08-30T15:18:54;39.70;99.90
10263;DHT22;5177;50.068;8.156;2022-08-30T15:21:27;39.90;99.90
10263;DHT22;5177;50.068;8.156;2022-08-30T15:23:55;39.50;99.90
10263;DHT22;5177;50.068;8.156;2022-08-30T15:26:20;38.30;99.90
10263;DHT22;5177;50.068;8.156;2022-08-30T15:28:46;37.90;99.90
10263;DHT22;5177;50.068;8.156;2022-08-30T15:31:11;37.70;99.90
10263;DHT22;5177;50.068;8.156;2022-08-30T15:33:37;36.60;99.90
10263;DHT22;5177;50.068;8.156;2022-08-30T15:36:03;35.30;99.90
10263;DHT22;5177;50.068;8.156;2022-08-30T15:38:29;34.20;99.90
10263;DHT22;5177;50.068;8.156;2022-08-30T15:40:54;33.40;99.90
10263;DHT22;5177;50.068;8.156;2022-08-30T15:43:20;32.70;99.90
10263;DHT22;5177;50.068;8.156;2022-08-30T15:45:45;32.40;1.00
10263;DHT22;5177;50.068;8.156;2022-08-30T15:48:11;32.20;1.00
10263;DHT22;5177;50.068;8.156;2022-08-30T15:50:36;31.90;1.00
10263;DHT22;5177;50.068;8.156;2022-08-30T15:53:02;31.60;1.00
10263;DHT22;5177;50.068;8.156;2022-08-30T15:55:27;31.20;1.00
10263;DHT22;5177;50.068;8.156;2022-08-30T15:57:53;30.80;1.00
10263;DHT22;5177;50.068;8.156;2022-08-30T16:00:18;30.60;1.00
10263;DHT22;5177;50.068;8.156;2022-08-30T16:02:44;30.40;1.00
10263;DHT22;5177;50.068;8.156;2022-08-30T16:05:13;30.30;1.00
10263;DHT22;5177;50.068;8.156;2022-08-30T16:07:39;30.20;1.00
10263;DHT22;5177;50.068;8.156;2022-08-30T16:10:05;29.90;1.00
10263;DHT22;5177;50.068;8.156;2022-08-30T16:12:30;29.80;1.00
10263;DHT22;5177;50.068;8.156;2022-08-30T16:14:56;29.80;1.00
10263;DHT22;5177;50.068;8.156;2022-08-30T16:17:21;29.60;1.00
10263;DHT22;5177;50.068;8.156;2022-08-30T16:19:48;29.60;1.00
10263;DHT22;5177;50.068;8.156;2022-08-30T16:22:14;29.60;1.00
10263;DHT22;5177;50.068;8.156;2022-08-30T16:24:39;29.50;1.00
10263;DHT22;5177;50.068;8.156;2022-08-30T16:27:06;29.50;1.00
10263;DHT22;5177;50.068;8.156;2022-08-30T16:29:32;29.30;1.00
10263;DHT22;5177;50.068;8.156;2022-08-30T16:31:57;29.20;1.00
10263;DHT22;5177;50.068;8.156;2022-08-30T16:34:23;29.10;1.00
10263;DHT22;5177;50.068;8.156;2022-08-30T16:36:48;29.00;1.00
10263;DHT22;5177;50.068;8.156;2022-08-30T16:39:14;28.90;1.00
10263;DHT22;5177;50.068;8.156;2022-08-30T16:41:40;28.80;1.00
10263;DHT22;5177;50.068;8.156;2022-08-30T16:44:06;28.80;1.00
10263;DHT22;5177;50.068;8.156;2022-08-30T16:46:32;28.70;1.00
10263;DHT22;5177;50.068;8.156;2022-08-30T16:48:58;28.70;1.00
10263;DHT22;5177;50.068;8.156;2022-08-30T16:51:26;28.60;1.00
10263;DHT22;5177;50.068;8.156;2022-08-30T16:53:55;28.60;1.00
10263;DHT22;5177;50.068;8.156;2022-08-30T16:56:21;28.50;1.00
10263;DHT22;5177;50.068;8.156;2022-08-30T16:58:48;28.50;1.00
10263;DHT22;5177;50.068;8.156;2022-08-30T17:01:14;28.40;1.00
10263;DHT22;5177;50.068;8.156;2022-08-30T17:03:40;28.40;1.00